Data for 02/24/2010

Time Sea-Level Adjusted Pressure Absolute Pressure Temperature Relative Humidity Dew Point   
(mb) (inHg) (mb) (inHg) (C) (F) (%) (C) (F)
00:05 1014 29.94 843 24.89 -2.9 26.8 44 -13.6 7.5
00:10 1014 29.94 843 24.89 -2.5 27.5 42 -13.8 7.1
00:15 1014 29.94 843 24.89 -2.3 27.9 42 -13.5 7.8
00:20 1014 29.94 843 24.89 -2.5 27.4 43 -13.5 7.6
00:25 1014 29.94 843 24.89 -2.7 27.2 44 -13.4 7.9
00:30 1014 29.94 843 24.89 -2.8 27 44 -13.4 7.9
00:35 1014 29.94 843 24.89 -2.9 26.8 45 -13.3 8
00:40 1014 29.94 843 24.89 -3.1 26.5 46 -13.3 8.1
00:45 1014 29.94 843 24.89 -3.3 26 46 -13.3 8
00:50 1014 29.94 843 24.89 -3.7 25.3 49 -12.9 8.8
00:55 1014 29.94 843 24.89 -3.7 25.3 48 -13.2 8.3
01:00 1014 29.94 843 24.89 -3.8 25.2 49 -12.9 8.8
01:05 1014 29.94 843 24.89 -4.3 24.3 51 -13 8.7
01:10 1014 29.94 843 24.89 -4.2 24.5 49 -13.3 8.1
01:15 1014 29.94 843 24.89 -4.2 24.4 50 -13.1 8.5
01:20 1014 29.94 843 24.89 -3.9 25 45 -14.1 6.6
01:25 1014 29.94 843 24.89 -3.4 25.8 45 -13.7 7.4
01:30 1013 29.91 843 24.89 -3.5 25.6 45 -13.7 7.3
01:35 1013 29.91 843 24.89 -3.3 26.1 43 -14.2 6.4
01:40 1013 29.91 843 24.89 -2.5 27.4 41 -14 6.9
01:45 1013 29.91 843 24.89 -2.6 27.3 43 -13.5 7.7
01:50 1013 29.91 843 24.89 -3.1 26.4 45 -13.5 7.8
01:55 1013 29.91 843 24.89 -3.4 25.8 45 -13.8 7.1
02:00 1013 29.91 843 24.89 -3 26.6 43 -13.8 7.2
02:05 1013 29.91 843 24.89 -2.9 26.7 45 -13.3 8
02:10 1013 29.91 843 24.89 -3.6 25.6 50 -12.5 9.5
02:15 1013 29.91 843 24.89 -4.6 23.7 53 -12.7 9.1
02:20 1013 29.91 842 24.86 -5.1 22.8 55 -12.9 8.8
02:25 1013 29.91 842 24.86 -5 23 53 -13.1 8.4
02:30 1013 29.91 842 24.86 -5.2 22.7 54 -13.1 8.5
02:35 1013 29.91 842 24.86 -4.7 23.5 52 -13.2 8.2
02:40 1013 29.91 842 24.86 -4.3 24.2 51 -12.9 8.8
02:45 1013 29.91 842 24.86 -4.5 23.9 50 -13.4 7.9
02:50 1013 29.91 842 24.86 -4.3 24.3 52 -12.7 9.1
02:55 1013 29.91 842 24.86 -5.1 22.8 54 -13 8.6
03:00 1013 29.91 842 24.86 -5.2 22.6 54 -13.1 8.4
03:05 1013 29.91 842 24.86 -5.1 22.9 53 -13.1 8.4
03:10 1013 29.91 842 24.86 -4.9 23.3 52 -13.3 8
03:15 1013 29.91 842 24.86 -5 23 53 -13.1 8.5
03:20 1012 29.88 842 24.86 -5.2 22.6 52 -13.7 7.3
03:25 1012 29.88 842 24.86 -5 23.1 51 -13.6 7.5
03:30 1012 29.88 841 24.83 -4.7 23.6 50 -13.7 7.4
03:35 1012 29.88 841 24.83 -5 22.9 51 -13.6 7.5
03:40 1012 29.88 841 24.83 -4.5 23.9 48 -13.9 7
03:45 1012 29.88 842 24.86 -3.7 25.3 48 -13.3 8.1
03:50 1012 29.88 842 24.86 -3.9 24.9 51 -12.7 9.1
03:55 1012 29.88 842 24.86 -4.5 23.9 52 -12.8 8.9
04:00 1012 29.88 842 24.86 -4.6 23.8 51 -13.2 8.3
04:05 1012 29.88 842 24.86 -4.6 23.8 52 -13.1 8.4
04:10 1012 29.88 842 24.86 -4.6 23.6 53 -12.8 9
04:15 1012 29.88 842 24.86 -5.1 22.8 55 -12.9 8.8
04:20 1012 29.88 842 24.86 -4.8 23.3 54 -12.7 9.1
04:25 1012 29.88 841 24.83 -5 23 55 -12.8 9
04:30 1012 29.88 841 24.83 -4.8 23.4 50 -13.7 7.4
04:35 1012 29.88 841 24.83 -3.8 25.2 49 -13 8.6
04:40 1012 29.88 841 24.83 -4.2 24.4 49 -13.4 7.9
04:45 1012 29.88 841 24.83 -4.3 24.2 50 -13.4 8
04:50 1012 29.88 841 24.83 -4.6 23.7 51 -13.2 8.2
04:55 1012 29.88 841 24.83 -4.3 24.2 48 -13.9 7
05:00 1012 29.88 841 24.83 -3.8 25.1 47 -13.6 7.5
05:05 1012 29.88 841 24.83 -3.7 25.4 47 -13.6 7.6
05:10 1012 29.88 841 24.83 -3.5 25.7 46 -13.4 7.8
05:15 1012 29.88 841 24.83 -3.3 26 46 -13.3 8
05:20 1012 29.88 841 24.83 -3.3 26.1 46 -13.3 8.1
05:25 1012 29.88 841 24.83 -3.3 26.1 45 -13.5 7.8
05:30 1012 29.88 841 24.83 -3 26.6 45 -13.4 7.8
05:35 1012 29.88 841 24.83 -3 26.5 44 -13.7 7.4
05:40 1012 29.88 841 24.83 -2.9 26.8 45 -13.3 8.1
05:45 1012 29.88 841 24.83 -3.1 26.5 48 -12.6 9.2
05:50 1012 29.88 841 24.83 -3.4 25.9 49 -12.7 9.2
05:55 1012 29.88 841 24.83 -3.9 25.1 51 -12.6 9.4
06:00 1012 29.88 841 24.83 -3.9 25 50 -12.9 8.8
06:05 1012 29.88 841 24.83 -3.8 25.2 53 -11.9 10.6
06:10 1012 29.88 841 24.83 -4 24.7 54 -12 10.5
06:15 1012 29.88 841 24.83 -4.2 24.5 56 -11.7 10.9
06:20 1012 29.88 841 24.83 -4.3 24.3 54 -12.3 9.8
06:25 1012 29.88 841 24.83 -4 24.9 50 -13 8.7
06:30 1012 29.88 841 24.83 -3.6 25.5 53 -11.8 10.7
06:35 1012 29.88 841 24.83 -3.6 25.5 52 -12.2 10
06:40 1011 29.85 841 24.83 -3.6 25.5 53 -11.9 10.6
06:45 1011 29.85 841 24.83 -4.1 24.6 56 -11.7 10.9
06:50 1011 29.85 840 24.81 -4.3 24.2 53 -12.6 9.4
06:55 1011 29.85 840 24.81 -3.9 24.9 52 -12.4 9.7
07:00 1011 29.85 840 24.81 -4.3 24.3 54 -12.3 9.9
07:05 1011 29.85 840 24.81 -4.5 23.9 51 -13.1 8.5
07:10 1011 29.85 840 24.81 -4 24.8 51 -12.7 9.1
07:15 1011 29.85 840 24.81 -4 24.9 49 -13.2 8.2
07:20 1011 29.85 840 24.81 -3.4 25.9 46 -13.3 8
07:25 1011 29.85 840 24.81 -3.2 26.2 46 -13.2 8.2
07:30 1011 29.85 840 24.81 -3 26.6 45 -13.2 8.2
07:35 1011 29.85 840 24.81 -2.9 26.8 46 -12.9 8.8
07:40 1011 29.85 840 24.81 -2.8 26.9 45 -13.1 8.4
07:45 1011 29.85 840 24.81 -2.7 27.1 45 -13.1 8.4
07:50 1011 29.85 840 24.81 -2.6 27.4 44 -13.3 8.1
07:55 1011 29.85 840 24.81 -2.6 27.4 44 -13.2 8.3
08:00 1011 29.85 841 24.83 -2.5 27.6 44 -13.3 8.1
08:05 1011 29.85 841 24.83 -2.2 28 42 -13.5 7.7
08:10 1011 29.85 841 24.83 -2.1 28.3 41 -13.8 7.2
08:15 1011 29.85 840 24.81 -1.9 28.6 41 -13.5 7.6
08:20 1011 29.85 840 24.81 -2 28.4 41 -13.7 7.3
08:25 1011 29.85 840 24.81 -1.8 28.7 45 -12.2 10
08:30 1011 29.85 841 24.83 -2 28.4 47 -11.9 10.6
08:35 1011 29.85 841 24.83 -2.1 28.2 49 -11.3 11.6
08:40 1011 29.85 841 24.83 -2.4 27.6 53 -10.8 12.5
08:45 1011 29.85 841 24.83 -2.9 26.7 53 -11.3 11.7
08:50 1011 29.85 840 24.81 -2.8 27 51 -11.5 11.3
08:55 1011 29.85 841 24.83 -2.6 27.4 49 -11.8 10.7
09:00 1011 29.85 840 24.81 -1.8 28.8 46 -12 10.5
09:05 1011 29.85 840 24.81 -1 30.3 46 -11.2 11.9
09:10 1011 29.85 840 24.81 -0.5 31 45 -11.2 11.8
09:15 1011 29.85 840 24.81 -0.7 30.8 45 -11.2 11.9
09:20 1011 29.85 840 24.81 -0.3 31.5 42 -11.6 11.2
09:25 1011 29.85 840 24.81 0.1 32.2 42 -11.4 11.6
09:30 1011 29.85 840 24.81 0.3 32.6 43 -10.8 12.6
09:35 1011 29.85 840 24.81 0.3 32.5 39 -12.1 10.2
09:40 1011 29.85 840 24.81 0.5 32.8 40 -11.7 11
09:45 1011 29.85 840 24.81 1.1 33.9 40 -11.1 12
09:50 1011 29.85 840 24.81 1.5 34.8 37 -11.7 11
09:55 1011 29.85 840 24.81 1.8 35.3 37 -11.4 11.5
10:00 1011 29.85 840 24.81 2.1 35.7 38 -10.9 12.4
10:05 1011 29.85 840 24.81 2.2 35.9 38 -10.7 12.7
10:10 1011 29.85 840 24.81 2.2 36 38 -10.8 12.5
10:15 1011 29.85 840 24.81 2 35.7 39 -10.6 12.9
10:20 1011 29.85 840 24.81 2 35.5 38 -10.8 12.5
10:25 1011 29.85 840 24.81 1.9 35.4 40 -10.4 13.3
10:30 1011 29.85 840 24.81 2.1 35.7 38 -10.8 12.6
10:35 1011 29.85 840 24.81 2.1 35.8 35 -11.9 10.5
10:40 1011 29.85 840 24.81 1.5 34.6 39 -11.1 12
10:45 1011 29.85 840 24.81 1.8 35.2 38 -11.1 12
10:50 1011 29.85 840 24.81 1.4 34.6 41 -10.4 13.3
10:55 1011 29.85 840 24.81 1.5 34.6 40 -10.7 12.8
11:00 1011 29.85 840 24.81 1.1 34 41 -10.7 12.8
11:05 1011 29.85 840 24.81 0.9 33.6 41 -11 12.2
11:10 1011 29.85 840 24.81 1.2 34.2 42 -10.4 13.3
11:15 1011 29.85 840 24.81 1.9 35.5 38 -10.8 12.6
11:20 1011 29.85 840 24.81 2.5 36.5 39 -10.2 13.6
11:25 1011 29.85 840 24.81 2.4 36.4 41 -9.5 15
11:30 1011 29.85 840 24.81 2.7 36.8 38 -10.3 13.5
11:35 1011 29.85 840 24.81 2.8 37.1 39 -9.8 14.4
11:40 1011 29.85 840 24.81 2.7 36.9 39 -9.8 14.4
11:45 1011 29.85 840 24.81 3 37.3 40 -9.5 14.9
11:50 1011 29.85 840 24.81 2.7 36.8 40 -9.6 14.7
11:55 1011 29.85 840 24.81 3 37.4 38 -9.9 14.2
12:00 1011 29.85 840 24.81 3.2 37.8 38 -9.8 14.3
12:05 1011 29.85 840 24.81 3.2 37.7 41 -8.9 16.1
12:10 1010 29.83 840 24.81 3 37.5 39 -9.5 14.9
12:15 1010 29.83 840 24.81 3.6 38.5 39 -9.1 15.6
12:20 1010 29.83 840 24.81 3.9 39 36 -9.7 14.5
12:25 1010 29.83 840 24.81 3.9 39.1 38 -9.2 15.4
12:30 1010 29.83 840 24.81 4 39.1 39 -8.7 16.3
12:35 1010 29.83 840 24.81 3.4 38.2 38 -9.5 14.9
12:40 1010 29.83 840 24.81 3.2 37.7 41 -8.8 16.2
12:45 1010 29.83 840 24.81 3.5 38.3 39 -9.2 15.4
12:50 1010 29.83 839 24.78 3.9 39 38 -9.3 15.2
12:55 1010 29.83 839 24.78 3.8 38.8 39 -8.8 16.1
13:00 1010 29.83 839 24.78 3.9 39.1 38 -9.2 15.4
13:05 1010 29.83 839 24.78 3.5 38.3 41 -8.7 16.4
13:10 1010 29.83 839 24.78 3.8 38.8 38 -9.2 15.5
13:15 1010 29.83 839 24.78 3.8 38.8 40 -8.7 16.3
13:20 1010 29.83 839 24.78 4.1 39.4 39 -8.7 16.4
13:25 1010 29.83 839 24.78 4 39.1 40 -8.4 16.8
13:30 1010 29.83 839 24.78 3.8 38.8 39 -8.8 16.1
13:35 1010 29.83 839 24.78 3.3 38 40 -8.9 15.9
13:40 1010 29.83 839 24.78 3.7 38.7 40 -8.7 16.4
13:45 1010 29.83 839 24.78 3.6 38.5 42 -8 17.6
13:50 1010 29.83 839 24.78 3.9 39 40 -8.5 16.8
13:55 1010 29.83 839 24.78 4.4 39.9 40 -8.1 17.3
14:00 1010 29.83 839 24.78 4.6 40.2 39 -8.4 16.9
14:05 1010 29.83 839 24.78 4.7 40.4 38 -8.3 17
14:10 1010 29.83 839 24.78 4.3 39.8 39 -8.3 17
14:15 1010 29.83 839 24.78 3.8 38.8 42 -8 17.5
14:20 1010 29.83 839 24.78 4 39.3 41 -8.2 17.2
14:25 1010 29.83 839 24.78 4.2 39.6 41 -7.8 17.9
14:30 1010 29.83 839 24.78 4.3 39.7 40 -8.3 17
14:35 1010 29.83 839 24.78 4 39.2 43 -7.6 18.3
14:40 1010 29.83 839 24.78 3.8 38.9 43 -7.6 18.4
14:45 1010 29.83 839 24.78 3.7 38.6 50 -5.9 21.5
14:50 1010 29.83 839 24.78 3.3 37.9 59 -4 24.7
14:55 1010 29.83 839 24.78 3.2 37.7 61 -3.6 25.6
15:00 1010 29.83 839 24.78 3 37.5 62 -3.4 25.8
15:05 1010 29.83 839 24.78 3.3 38 64 -2.9 26.7
15:10 1010 29.83 839 24.78 3.2 37.7 66 -2.5 27.5
15:15 1010 29.83 839 24.78 3.1 37.6 67 -2.3 27.8
15:20 1010 29.83 839 24.78 3.1 37.6 69 -2 28.5
15:25 1010 29.83 839 24.78 3.4 38.1 66 -2.3 27.9
15:30 1010 29.83 840 24.81 3.8 38.8 65 -2.1 28.2
15:35 1010 29.83 840 24.81 3.7 38.7 64 -2.5 27.5
15:40 1010 29.83 840 24.81 3.9 39 62 -2.7 27.2
15:45 1010 29.83 840 24.81 3.8 38.9 61 -3 26.5
15:50 1010 29.83 840 24.81 3.9 39 60 -3.2 26.2
15:55 1010 29.83 840 24.81 4 39.2 62 -2.5 27.4
16:00 1010 29.83 840 24.81 3.7 38.7 63 -2.6 27.3
16:05 1010 29.83 840 24.81 3.9 39 62 -2.7 27.1
16:10 1010 29.83 840 24.81 4.3 39.7 61 -2.6 27.4
16:15 1010 29.83 839 24.78 4.3 39.7 61 -2.5 27.5
16:20 1010 29.83 839 24.78 4 39.1 60 -3.1 26.4
16:25 1010 29.83 840 24.81 4.1 39.5 60 -2.9 26.8
16:30 1010 29.83 840 24.81 3.9 39.1 60 -3 26.5
16:35 1010 29.83 840 24.81 3.9 39 61 -3 26.6
16:40 1010 29.83 840 24.81 3.8 38.8 62 -2.9 26.8
16:45 1010 29.83 840 24.81 4.1 39.4 59 -3.1 26.4
16:50 1010 29.83 840 24.81 4.4 40 58 -3.1 26.4
16:55 1010 29.83 840 24.81 4.4 39.9 58 -3.1 26.4
17:00 1010 29.83 840 24.81 4.3 39.7 55 -4 24.8
17:05 1010 29.83 840 24.81 4 39.2 56 -3.9 25
17:10 1010 29.83 840 24.81 3.6 38.5 58 -3.8 25.1
17:15 1011 29.85 840 24.81 3.6 38.5 58 -3.8 25.1
17:20 1011 29.85 840 24.81 4 39.1 58 -3.7 25.4
17:25 1011 29.85 840 24.81 4 39.3 58 -3.5 25.8
17:30 1011 29.85 840 24.81 4 39.2 58 -3.5 25.7
17:35 1011 29.85 840 24.81 4 39.2 58 -3.5 25.7
17:40 1011 29.85 840 24.81 4 39.2 58 -3.4 25.9
17:45 1011 29.85 840 24.81 4 39.1 59 -3.3 26.1
17:50 1011 29.85 840 24.81 3.9 39.1 58 -3.6 25.4
17:55 1011 29.85 840 24.81 3.9 39 58 -3.6 25.6
18:00 1011 29.85 840 24.81 3.9 39 58 -3.7 25.4
18:05 1011 29.85 840 24.81 3.7 38.7 58 -3.8 25.1
18:10 1011 29.85 840 24.81 3.7 38.6 59 -3.6 25.5
18:15 1011 29.85 840 24.81 3.7 38.6 58 -3.9 25
18:20 1011 29.85 840 24.81 3.8 38.8 55 -4.4 24
18:25 1011 29.85 840 24.81 3.9 39.1 56 -4 24.8
18:30 1011 29.85 840 24.81 4 39.3 56 -3.8 25.1
18:35 1011 29.85 840 24.81 3.9 39.1 57 -3.8 25.2
18:40 1011 29.85 840 24.81 3.9 39 60 -3.2 26.2
18:45 1011 29.85 840 24.81 3.6 38.5 58 -3.8 25.1
18:50 1011 29.85 840 24.81 3.6 38.5 57 -4.1 24.7
18:55 1011 29.85 840 24.81 3.7 38.7 57 -4.1 24.7
19:00 1011 29.85 840 24.81 3.6 38.5 59 -3.7 25.3
19:05 1011 29.85 840 24.81 3.6 38.4 57 -4.1 24.6
19:10 1011 29.85 840 24.81 3.7 38.6 58 -3.7 25.3
19:15 1011 29.85 841 24.83 3.7 38.7 58 -3.7 25.3
19:20 1011 29.85 841 24.83 3.7 38.6 60 -3.4 25.9
19:25 1011 29.85 841 24.83 3.5 38.3 60 -3.5 25.8
19:30 1011 29.85 841 24.83 3.4 38.2 60 -3.6 25.6
19:35 1011 29.85 841 24.83 3.5 38.3 59 -3.7 25.4
19:40 1011 29.85 841 24.83 3.3 37.9 62 -3.4 25.9
19:45 1011 29.85 841 24.83 3.2 37.7 62 -3.3 26.1
19:50 1011 29.85 841 24.83 3.4 38.1 58 -4.2 24.4
19:55 1011 29.85 841 24.83 3.8 38.8 58 -3.8 25.1
20:00 1012 29.88 841 24.83 3.7 38.7 61 -3.2 26.3
20:05 1012 29.88 841 24.83 3.5 38.2 63 -2.9 26.9
20:10 1012 29.88 841 24.83 3.2 37.8 66 -2.6 27.3
20:15 1012 29.88 841 24.83 3 37.3 69 -2.2 28.1
20:20 1012 29.88 841 24.83 2.7 36.9 70 -2.2 28.1
20:25 1012 29.88 841 24.83 2.4 36.4 70 -2.5 27.5
20:30 1012 29.88 841 24.83 2.2 36 71 -2.5 27.6
20:35 1012 29.88 841 24.83 2.3 36.1 70 -2.7 27.1
20:40 1012 29.88 841 24.83 2.4 36.4 69 -2.6 27.3
20:45 1012 29.88 841 24.83 2.6 36.7 69 -2.5 27.6
20:50 1012 29.88 841 24.83 2.5 36.5 70 -2.3 27.8
20:55 1012 29.88 841 24.83 2.4 36.3 72 -2.2 28
21:00 1012 29.88 841 24.83 2.3 36.2 71 -2.5 27.6
21:05 1012 29.88 841 24.83 2.4 36.2 71 -2.5 27.6
21:10 1012 29.88 841 24.83 2.4 36.3 70 -2.5 27.6
21:15 1012 29.88 841 24.83 2.5 36.4 69 -2.7 27.1
21:20 1012 29.88 841 24.83 2.5 36.5 70 -2.4 27.6
21:25 1012 29.88 841 24.83 2.4 36.3 70 -2.6 27.4
21:30 1012 29.88 842 24.86 2.4 36.3 69 -2.8 27
21:35 1012 29.88 842 24.86 2.5 36.5 67 -2.9 26.7
21:40 1012 29.88 842 24.86 2.6 36.7 67 -2.9 26.8
21:45 1012 29.88 842 24.86 2.6 36.7 68 -2.8 27
21:50 1012 29.88 842 24.86 2.6 36.8 64 -3.4 25.9
21:55 1013 29.91 842 24.86 2.8 37.1 64 -3.4 25.9
22:00 1013 29.91 842 24.86 2.9 37.2 64 -3.3 26.1
22:05 1013 29.91 842 24.86 2.9 37.3 63 -3.4 25.8
22:10 1013 29.91 842 24.86 3 37.4 63 -3.4 25.8
22:15 1013 29.91 842 24.86 3.1 37.5 63 -3.3 26
22:20 1013 29.91 842 24.86 3.1 37.5 63 -3.4 25.9
22:25 1013 29.91 842 24.86 3 37.5 63 -3.4 25.9
22:30 1013 29.91 842 24.86 2.9 37.3 63 -3.3 26
22:35 1013 29.91 842 24.86 2.8 37.1 65 -3.2 26.3
22:40 1013 29.91 842 24.86 2.7 36.9 65 -3.2 26.3
22:45 1013 29.91 842 24.86 2.7 36.8 65 -3.2 26.2
22:50 1013 29.91 842 24.86 2.7 36.9 65 -3.2 26.2
22:55 1013 29.91 842 24.86 2.7 36.9 67 -2.9 26.8
23:00 1013 29.91 842 24.86 2.6 36.6 67 -2.9 26.8
23:05 1013 29.91 842 24.86 2.4 36.4 67 -3 26.6
23:10 1013 29.91 842 24.86 2.4 36.3 67 -3 26.6
23:15 1013 29.91 842 24.86 2.5 36.5 67 -2.9 26.8
23:20 1013 29.91 842 24.86 2.4 36.3 68 -3 26.7
23:25 1013 29.91 842 24.86 2.3 36.2 67 -3.1 26.5
23:30 1013 29.91 842 24.86 2.4 36.3 68 -2.9 26.8
23:35 1013 29.91 842 24.86 2.3 36.2 67 -3.1 26.3
23:40 1013 29.91 842 24.86 2.3 36.1 68 -3 26.5
23:45 1013 29.91 842 24.86 2.3 36.1 67 -3.2 26.3
23:50 1013 29.91 842 24.86 2.3 36.1 67 -3.3 26.1
23:55 1013 29.91 843 24.89 2.2 36 67 -3.3 26.1
24:00 1013 29.91 843 24.89 2.2 35.9 67 -3.2 26.2